createdAt,value
2017-12-14T00:00:02.308Z,280.33
2017-12-14T00:02:10.650Z,222.80
2017-12-14T00:04:23.452Z,193.33
2017-12-14T00:06:36.075Z,187.10
2017-12-14T00:08:46.259Z,175.77
2017-12-14T00:11:03.723Z,173.53
2017-12-14T00:13:13.606Z,165.70
2017-12-14T00:15:27.875Z,168.00
2017-12-14T00:17:35.031Z,159.70
2017-12-14T00:19:43.544Z,150.50
2017-12-14T00:21:53.594Z,146.23
2017-12-14T00:23:59.964Z,139.70
2017-12-14T00:26:11.008Z,131.07
2017-12-14T00:28:19.250Z,126.67
2017-12-14T00:30:26.776Z,122.70
2017-12-14T00:32:32.809Z,122.93
2017-12-14T00:34:39.815Z,112.80
2017-12-14T00:36:51.534Z,114.33
2017-12-14T00:41:10.616Z,101.00
2017-12-14T00:43:17.457Z,103.83
2017-12-14T00:45:24.920Z,96.47
2017-12-14T00:47:34.567Z,94.50
2017-12-14T00:49:45.388Z,88.97
2017-12-14T00:51:54.761Z,89.20
2017-12-14T00:54:04.298Z,78.53
2017-12-14T00:56:11.035Z,81.03
2017-12-14T01:00:33.472Z,74.00
2017-12-14T01:02:41.267Z,71.40
2017-12-14T01:04:51.770Z,67.50
2017-12-14T01:07:02.439Z,67.17
2017-12-14T01:09:11.493Z,64.20
2017-12-14T01:11:17.919Z,64.63
2017-12-14T01:13:25.274Z,61.60
2017-12-14T01:15:32.390Z,57.70
2017-12-14T01:17:38.992Z,56.13
2017-12-14T01:19:46.986Z,53.77
2017-12-14T01:21:55.102Z,53.30
2017-12-14T01:24:00.900Z,52.27
2017-12-14T01:26:15.639Z,47.70
2017-12-14T01:28:24.191Z,46.87
2017-12-14T01:30:32.474Z,45.60
2017-12-14T01:32:39.958Z,43.53
2017-12-14T01:34:47.201Z,42.70
2017-12-14T01:36:54.237Z,42.43
2017-12-14T01:39:00.156Z,40.23
2017-12-14T01:41:07.122Z,38.40
2017-12-14T01:43:12.537Z,37.60
2017-12-14T01:45:22.329Z,37.13
2017-12-14T01:47:31.473Z,36.50
2017-12-14T01:49:37.689Z,34.37
2017-12-14T01:51:47.278Z,34.17
2017-12-14T01:53:53.602Z,33.97
2017-12-14T01:55:59.252Z,31.40
2017-12-14T01:58:06.321Z,30.40
2017-12-14T02:00:16.874Z,28.70
2017-12-14T02:02:22.301Z,27.20
2017-12-14T02:04:28.892Z,26.97
2017-12-14T02:06:40.070Z,24.10
2017-12-14T02:08:46.145Z,24.07
2017-12-14T02:10:51.943Z,23.40
2017-12-14T02:13:00.259Z,23.03
2017-12-14T02:15:08.851Z,22.80
2017-12-14T02:17:14.536Z,22.10
2017-12-14T02:19:24.651Z,20.80
2017-12-14T02:21:33.644Z,19.30
2017-12-14T02:23:43.514Z,18.80
2017-12-14T02:25:56.447Z,17.33
2017-12-14T02:28:06.777Z,17.30
2017-12-14T02:30:14.820Z,17.87
2017-12-14T02:32:22.053Z,16.60
2017-12-14T02:34:29.167Z,16.70
2017-12-14T02:36:34.706Z,15.93
2017-12-14T02:38:42.299Z,15.53
2017-12-14T02:40:55.195Z,15.20
2017-12-14T02:43:02.387Z,14.10
2017-12-14T02:45:09.155Z,13.50
2017-12-14T02:47:19.035Z,14.80
2017-12-14T02:49:29.011Z,12.73
2017-12-14T02:51:37.785Z,12.50
2017-12-14T02:53:43.732Z,12.97
2017-12-14T02:55:50.135Z,12.57
2017-12-14T02:57:58.482Z,12.07
2017-12-14T03:00:08.351Z,12.50
2017-12-14T03:02:19.567Z,11.27
2017-12-14T03:04:27.505Z,11.00
2017-12-14T03:06:34.462Z,10.80
2017-12-14T03:08:40.490Z,10.37
2017-12-14T03:10:48.075Z,10.17
2017-12-14T03:12:56.259Z,9.30
2017-12-14T03:15:04.401Z,9.67
2017-12-14T03:17:10.327Z,10.53
2017-12-14T03:19:16.346Z,9.00
2017-12-14T03:21:22.563Z,9.13
2017-12-14T03:23:30.954Z,9.37
2017-12-14T03:25:37.460Z,8.33
2017-12-14T03:27:42.906Z,8.93
2017-12-14T03:29:48.581Z,8.00
2017-12-14T03:32:00.503Z,8.13
2017-12-14T03:34:06.179Z,8.00
2017-12-14T03:36:12.566Z,7.00
2017-12-14T03:38:18.277Z,7.90
2017-12-14T03:40:23.821Z,7.67
2017-12-14T03:42:30.265Z,7.90
2017-12-14T03:44:36.971Z,7.00
2017-12-14T03:46:42.488Z,6.83
2017-12-14T03:48:48.828Z,7.10
2017-12-14T03:50:54.480Z,6.37
2017-12-14T03:53:00.579Z,6.73
2017-12-14T03:55:06.473Z,6.73
2017-12-14T03:57:13.763Z,5.73
2017-12-14T03:59:19.311Z,6.07
2017-12-14T04:01:27.023Z,7.10
2017-12-14T04:03:39.619Z,5.70
2017-12-14T04:05:47.424Z,5.63
2017-12-14T04:07:54.001Z,5.60
2017-12-14T04:10:06.656Z,5.80
2017-12-14T04:12:17.723Z,4.90
2017-12-14T04:14:23.914Z,5.70
2017-12-14T04:18:42.093Z,5.47
2017-12-14T04:20:48.182Z,5.10
2017-12-14T04:22:53.958Z,5.37
2017-12-14T04:24:59.488Z,4.87
2017-12-14T04:27:07.735Z,4.77
2017-12-14T04:29:15.998Z,5.63
2017-12-14T04:31:25.547Z,4.50
2017-12-14T04:33:33.702Z,3.90
2017-12-14T04:35:39.338Z,4.33
2017-12-14T04:37:45.665Z,3.87
2017-12-14T04:39:52.019Z,3.73
2017-12-14T04:41:57.804Z,4.13
2017-12-14T04:44:03.421Z,3.90
2017-12-14T04:46:09.366Z,4.03
2017-12-14T04:48:15.318Z,4.60
2017-12-14T04:50:22.284Z,4.20
2017-12-14T04:52:28.749Z,4.13
2017-12-14T04:54:34.331Z,4.10
2017-12-14T04:56:43.405Z,3.80
2017-12-14T04:58:49.857Z,3.33
2017-12-14T05:00:55.826Z,3.40
2017-12-14T05:03:01.772Z,3.40
2017-12-14T05:05:08.212Z,3.47
2017-12-14T05:07:14.234Z,3.27
2017-12-14T05:09:22.851Z,3.73
2017-12-14T05:11:28.667Z,3.67
2017-12-14T05:13:36.415Z,3.47
2017-12-14T05:15:42.084Z,3.00
2017-12-14T05:17:50.329Z,3.70
2017-12-14T05:19:56.764Z,2.93
2017-12-14T05:22:02.916Z,2.60
2017-12-14T05:24:10.078Z,3.10
2017-12-14T05:26:15.984Z,3.10
2017-12-14T05:28:21.981Z,2.70
2017-12-14T05:30:29.768Z,2.80
2017-12-14T05:32:37.147Z,2.40
2017-12-14T05:34:43.631Z,2.80
2017-12-14T05:36:49.553Z,3.00
2017-12-14T05:38:55.947Z,2.50
2017-12-14T05:41:01.702Z,2.40
2017-12-14T05:43:08.565Z,2.40
2017-12-14T05:45:14.014Z,2.20
2017-12-14T05:47:22.175Z,2.20
2017-12-14T05:49:34.170Z,2.50
2017-12-14T05:51:42.954Z,2.10
2017-12-14T05:53:49.184Z,2.37
2017-12-14T05:55:58.272Z,1.73
2017-12-14T06:00:21.558Z,2.00
2017-12-14T06:02:30.389Z,1.93
2017-12-14T06:04:36.570Z,1.70
2017-12-14T06:06:49.956Z,1.93
2017-12-14T06:11:07.762Z,1.80
2017-12-14T06:13:20.303Z,1.63
2017-12-14T06:15:31.587Z,1.43
2017-12-14T06:20:13.465Z,1.20
2017-12-14T06:22:33.755Z,1.30
2017-12-14T06:24:44.180Z,1.50
2017-12-14T06:26:58.568Z,1.40
2017-12-14T06:29:09.697Z,13.10
2017-12-14T06:31:16.912Z,43.47
2017-12-14T06:33:22.823Z,157.60
2017-12-14T06:35:29.020Z,303.90
2017-12-14T06:37:47.971Z,382.80
2017-12-14T06:39:54.166Z,310.93
2017-12-14T06:42:01.122Z,320.47
2017-12-14T06:44:11.402Z,289.53
2017-12-14T06:46:18.869Z,249.17
2017-12-14T06:48:27.786Z,231.20
2017-12-14T06:50:34.520Z,493.30
2017-12-14T06:52:42.306Z,369.40
2017-12-14T06:54:50.894Z,580.93
2017-12-14T06:56:59.053Z,531.03
2017-12-14T06:59:07.459Z,459.87
2017-12-14T07:01:17.423Z,423.10
2017-12-14T07:03:30.771Z,440.40
2017-12-14T07:05:47.324Z,664.23
2017-12-14T07:07:56.552Z,677.83
2017-12-14T07:10:03.598Z,531.27
2017-12-14T07:12:12.442Z,490.13
2017-12-14T07:14:18.694Z,430.77
2017-12-14T07:16:24.879Z,393.90
2017-12-14T07:18:30.701Z,375.90
2017-12-14T07:20:40.169Z,347.47
2017-12-14T07:22:49.419Z,316.73
2017-12-14T07:24:56.311Z,291.00
2017-12-14T07:27:02.305Z,271.00
2017-12-14T07:29:13.387Z,254.83
2017-12-14T07:31:21.626Z,224.80
2017-12-14T07:33:32.114Z,199.20
2017-12-14T07:35:41.355Z,783.80
2017-12-14T07:37:55.176Z,672.70
2017-12-14T07:40:05.917Z,662.07
2017-12-14T07:42:20.240Z,466.97
2017-12-14T07:44:31.599Z,431.60
2017-12-14T07:46:42.716Z,391.30
2017-12-14T07:49:02.674Z,393.87
2017-12-14T07:51:18.232Z,333.30
2017-12-14T07:53:26.713Z,317.90
2017-12-14T07:58:23.848Z,553.40
2017-12-14T08:00:41.200Z,573.50
2017-12-14T08:02:49.243Z,509.13
2017-12-14T08:05:00.259Z,428.10
2017-12-14T08:07:10.166Z,432.70
2017-12-14T08:09:21.743Z,398.07
2017-12-14T08:11:29.296Z,382.30
2017-12-14T08:13:43.502Z,344.13
2017-12-14T08:15:57.883Z,320.63
2017-12-14T08:18:06.955Z,292.97
2017-12-14T08:20:14.370Z,271.00
2017-12-14T08:22:23.291Z,254.63
2017-12-14T08:24:34.400Z,223.53
2017-12-14T08:26:46.396Z,209.07
2017-12-14T08:28:54.571Z,193.47
2017-12-14T08:31:00.292Z,175.03
2017-12-14T08:33:07.684Z,159.70
2017-12-14T08:35:26.862Z,226.00
2017-12-14T08:37:36.395Z,502.13
2017-12-14T08:39:45.642Z,432.73
2017-12-14T08:41:55.715Z,293.23
2017-12-14T08:44:04.555Z,412.03
2017-12-14T08:46:12.628Z,494.20
2017-12-14T08:48:20.420Z,579.00
2017-12-14T08:50:31.534Z,601.03
2017-12-14T08:52:41.104Z,511.60
2017-12-14T08:54:51.243Z,480.00
2017-12-14T08:56:58.079Z,438.87
2017-12-14T08:59:10.285Z,432.03
2017-12-14T09:01:20.530Z,378.50
2017-12-14T09:03:35.401Z,349.57
2017-12-14T09:05:55.249Z,289.87
2017-12-14T09:10:21.072Z,238.67
2017-12-14T09:12:32.555Z,209.90
2017-12-14T09:14:46.995Z,194.13
2017-12-14T09:19:28.408Z,141.13
2017-12-14T09:21:40.768Z,125.40
2017-12-14T09:23:51.782Z,115.33
2017-12-14T09:25:59.884Z,99.07
2017-12-14T09:28:11.603Z,83.10
2017-12-14T09:30:19.110Z,72.57
2017-12-14T09:32:25.524Z,60.30
2017-12-14T09:34:33.549Z,248.80
2017-12-14T09:36:45.148Z,274.30
2017-12-14T09:38:54.871Z,417.03
2017-12-14T09:41:00.648Z,327.13
2017-12-14T09:43:19.967Z,291.30
2017-12-14T09:45:35.630Z,242.13
2017-12-14T09:47:54.315Z,215.67
2017-12-14T09:50:06.848Z,177.70
2017-12-14T09:52:15.853Z,154.40
2017-12-14T09:56:50.966Z,102.47
2017-12-14T09:58:59.347Z,86.40
2017-12-14T10:01:17.818Z,77.00
2017-12-14T10:03:33.619Z,69.83
2017-12-14T10:06:09.399Z,57.83
2017-12-14T10:08:21.241Z,512.43
2017-12-14T10:10:36.069Z,257.83
2017-12-14T10:12:51.864Z,196.67
2017-12-14T10:15:04.017Z,302.03
2017-12-14T10:17:19.281Z,372.40
2017-12-14T10:19:33.812Z,275.13
2017-12-14T10:21:49.483Z,254.47
2017-12-14T10:24:02.415Z,200.70
2017-12-14T10:26:13.667Z,176.77
2017-12-14T10:28:37.989Z,153.83
2017-12-14T10:30:58.439Z,133.37
2017-12-14T10:33:14.643Z,116.50
2017-12-14T10:35:37.364Z,89.43
2017-12-14T10:38:14.299Z,78.97
2017-12-14T10:40:31.998Z,63.27
2017-12-14T10:42:43.720Z,53.70
2017-12-14T10:44:59.084Z,45.73
2017-12-14T10:47:16.824Z,41.00
2017-12-14T10:49:29.279Z,39.97
2017-12-14T10:51:46.223Z,578.67
2017-12-14T10:54:06.102Z,446.63
2017-12-14T10:56:21.204Z,512.07
2017-12-14T10:58:43.096Z,446.83
2017-12-14T11:01:04.499Z,378.73
2017-12-14T11:03:11.436Z,331.33
2017-12-14T11:05:21.933Z,291.50
2017-12-14T11:07:45.462Z,280.03
2017-12-14T11:09:56.162Z,257.57
2017-12-14T11:12:06.350Z,218.67
2017-12-14T11:14:15.364Z,302.43
2017-12-14T11:16:24.240Z,600.53
2017-12-14T11:18:47.533Z,630.13
2017-12-14T11:20:56.575Z,485.40
2017-12-14T11:23:12.708Z,446.00
2017-12-14T11:25:30.343Z,395.67
2017-12-14T11:27:40.044Z,377.73
2017-12-14T11:29:55.878Z,334.47
2017-12-14T11:32:06.736Z,321.00
2017-12-14T11:34:13.520Z,302.30
2017-12-14T11:36:22.785Z,275.10
2017-12-14T11:38:33.540Z,255.03
2017-12-14T11:40:44.431Z,229.90
2017-12-14T11:42:54.219Z,228.83
2017-12-14T11:45:18.520Z,203.80
2017-12-14T11:47:28.775Z,187.00
2017-12-14T11:49:49.124Z,167.63
2017-12-14T11:52:05.994Z,151.03
2017-12-14T11:54:44.090Z,138.30
2017-12-14T11:56:57.544Z,240.57
2017-12-14T11:59:14.522Z,999.90
2017-12-14T12:01:27.617Z,505.57
2017-12-14T12:03:42.652Z,418.83
2017-12-14T12:05:56.598Z,434.63
2017-12-14T12:08:15.677Z,401.10
2017-12-14T12:10:29.117Z,380.90
2017-12-14T12:12:42.092Z,339.40
2017-12-14T12:15:07.463Z,314.42
2017-12-14T12:17:17.363Z,285.87
2017-12-14T12:19:35.273Z,262.00
2017-12-14T12:21:50.468Z,234.27
2017-12-14T12:23:59.960Z,205.53
2017-12-14T12:26:14.777Z,194.77
2017-12-14T12:28:28.940Z,179.23
2017-12-14T12:30:40.648Z,165.83
2017-12-14T12:32:53.653Z,399.83
2017-12-14T12:35:11.442Z,693.10
2017-12-14T12:37:18.899Z,512.87
2017-12-14T12:39:25.428Z,622.03
2017-12-14T12:41:34.584Z,498.10
2017-12-14T12:43:45.953Z,437.30
2017-12-14T12:45:52.481Z,425.83
2017-12-14T12:48:05.527Z,397.30
2017-12-14T12:50:18.112Z,354.80
2017-12-14T12:52:29.795Z,333.67
2017-12-14T12:54:37.755Z,317.57
2017-12-14T12:56:49.746Z,301.00
2017-12-14T12:59:03.522Z,271.00
2017-12-14T13:01:32.010Z,243.43
2017-12-14T13:03:43.693Z,209.20
2017-12-14T13:05:58.171Z,190.97
2017-12-14T13:08:13.707Z,191.13
2017-12-14T13:10:34.087Z,487.27
2017-12-14T13:12:46.790Z,559.77
2017-12-14T13:14:57.454Z,506.70
2017-12-14T13:17:10.437Z,491.63
2017-12-14T13:21:52.142Z,536.20
2017-12-14T13:24:01.611Z,404.63
2017-12-14T13:26:18.394Z,356.70
2017-12-14T13:28:31.529Z,339.20
2017-12-14T13:30:50.538Z,310.43
2017-12-14T13:33:00.626Z,305.73
2017-12-14T13:35:12.405Z,284.37
2017-12-14T13:37:25.251Z,272.97
2017-12-14T13:39:32.754Z,247.97
2017-12-14T13:41:45.533Z,235.23
2017-12-14T13:43:59.104Z,216.83
2017-12-14T13:46:07.747Z,194.57
2017-12-14T13:48:20.319Z,183.27
2017-12-14T13:50:27.907Z,177.80
2017-12-14T13:52:38.485Z,159.43
2017-12-14T13:54:46.415Z,156.03
2017-12-14T13:56:54.257Z,135.63
2017-12-14T13:59:04.417Z,128.43
2017-12-14T14:01:11.948Z,127.57
2017-12-14T14:03:20.367Z,118.00
2017-12-14T14:05:29.376Z,111.30
2017-12-14T14:07:43.589Z,103.93
2017-12-14T14:09:56.054Z,91.50
2017-12-14T14:12:04.241Z,90.20
2017-12-14T14:14:11.132Z,82.23
2017-12-14T14:16:21.028Z,80.97
2017-12-14T14:18:30.687Z,72.87
2017-12-14T14:20:40.738Z,71.07
2017-12-14T14:22:51.081Z,66.10
2017-12-14T14:24:59.925Z,62.60
2017-12-14T14:27:08.734Z,58.47
2017-12-14T14:29:17.789Z,53.20
2017-12-14T14:31:29.933Z,50.80
2017-12-14T14:33:39.008Z,46.50
2017-12-14T14:35:57.931Z,40.80
2017-12-14T14:38:09.023Z,39.20
2017-12-14T14:40:16.861Z,34.90
2017-12-14T14:42:27.895Z,117.80
2017-12-14T14:44:38.729Z,215.20
2017-12-14T14:46:53.788Z,59.57
2017-12-14T14:49:02.268Z,715.13
2017-12-14T14:51:19.012Z,269.43
2017-12-14T14:53:33.288Z,548.57
2017-12-14T14:55:51.785Z,534.80
2017-12-14T14:58:03.524Z,488.23
2017-12-14T15:00:15.198Z,440.80
2017-12-14T15:02:23.495Z,408.17
2017-12-14T15:04:34.485Z,384.07
2017-12-14T15:06:42.700Z,355.60
2017-12-14T15:08:57.391Z,334.40
2017-12-14T15:11:12.783Z,316.07
2017-12-14T15:13:20.647Z,277.77
2017-12-14T15:15:39.247Z,266.83
2017-12-14T15:17:49.130Z,662.37
2017-12-14T15:20:00.640Z,668.67
2017-12-14T15:22:14.162Z,591.83
2017-12-14T15:24:28.348Z,544.57
2017-12-14T15:26:39.325Z,511.50
2017-12-14T15:29:05.895Z,475.07
2017-12-14T15:31:18.651Z,453.23
2017-12-14T15:33:29.297Z,427.27
2017-12-14T15:35:46.741Z,414.00
2017-12-14T15:38:03.498Z,390.83
2017-12-14T15:40:15.795Z,379.43
2017-12-14T15:42:26.843Z,357.63
2017-12-14T15:44:39.889Z,342.23
2017-12-14T15:46:56.140Z,321.13
2017-12-14T15:49:11.171Z,301.77
2017-12-14T15:51:24.339Z,285.67
2017-12-14T15:53:36.619Z,282.50
2017-12-14T15:55:57.399Z,268.50
2017-12-14T15:58:08.586Z,253.17
2017-12-14T16:00:21.059Z,250.40
2017-12-14T16:02:32.777Z,227.10
2017-12-14T16:04:43.972Z,216.27
2017-12-14T16:06:56.095Z,205.80
2017-12-14T16:09:05.716Z,217.43
2017-12-14T16:11:15.132Z,449.03
2017-12-14T16:13:27.757Z,607.07
2017-12-14T16:15:43.781Z,510.30
2017-12-14T16:17:55.020Z,470.73
2017-12-14T16:20:06.706Z,458.13
2017-12-14T16:22:20.747Z,435.30
2017-12-14T16:24:29.202Z,421.57
2017-12-14T16:26:37.300Z,406.20
2017-12-14T16:28:46.378Z,386.77
2017-12-14T16:30:52.935Z,364.20
2017-12-14T16:33:10.964Z,342.37
2017-12-14T16:35:24.817Z,326.93
2017-12-14T16:37:34.424Z,305.63
2017-12-14T16:39:45.858Z,291.70
2017-12-14T16:41:54.707Z,276.00
2017-12-14T16:44:04.455Z,250.70
2017-12-14T16:46:12.520Z,232.80
2017-12-14T16:48:28.937Z,229.40
2017-12-14T16:50:37.726Z,216.53
2017-12-14T16:52:48.246Z,199.20
2017-12-14T16:54:58.846Z,198.73
2017-12-14T16:57:08.066Z,186.70
2017-12-14T16:59:22.365Z,180.50
2017-12-14T17:01:30.856Z,163.37
2017-12-14T17:03:42.706Z,155.70
2017-12-14T17:05:55.516Z,148.67
2017-12-14T17:08:12.230Z,141.20
2017-12-14T17:10:23.455Z,134.27
2017-12-14T17:12:33.208Z,450.00
2017-12-14T17:14:44.075Z,809.30
2017-12-14T17:16:55.860Z,600.70
2017-12-14T17:19:06.408Z,554.60
2017-12-14T17:21:15.344Z,494.03
2017-12-14T17:23:24.694Z,459.50
2017-12-14T17:25:33.607Z,432.63
2017-12-14T17:27:51.163Z,404.80
2017-12-14T17:32:20.234Z,364.17
2017-12-14T17:34:27.269Z,357.93
2017-12-14T17:36:35.791Z,342.87
2017-12-14T17:38:45.994Z,319.80
2017-12-14T17:40:53.163Z,303.67
2017-12-14T17:43:01.892Z,290.03
2017-12-14T17:45:20.183Z,548.37
2017-12-14T17:47:28.965Z,812.30
2017-12-14T17:49:36.450Z,684.77
2017-12-14T17:51:43.526Z,653.83
2017-12-14T17:53:51.251Z,634.90
2017-12-14T17:55:58.062Z,597.07
2017-12-14T17:58:06.108Z,557.37
2017-12-14T18:00:14.710Z,531.27
2017-12-14T18:02:22.906Z,518.17
2017-12-14T18:04:35.136Z,486.83
2017-12-14T18:06:42.828Z,465.53
2017-12-14T18:08:50.976Z,441.73
2017-12-14T18:11:04.361Z,442.97
2017-12-14T18:13:13.984Z,423.07
2017-12-14T18:15:24.067Z,396.13
2017-12-14T18:17:33.375Z,388.70
2017-12-14T18:19:43.436Z,370.17
2017-12-14T18:21:53.778Z,359.07
2017-12-14T18:24:03.918Z,515.00
2017-12-14T18:26:14.799Z,459.80
2017-12-14T18:28:25.203Z,508.20
2017-12-14T18:30:35.405Z,565.47
2017-12-14T18:32:45.603Z,574.20
2017-12-14T18:34:55.561Z,549.27
2017-12-14T18:37:14.080Z,528.97
2017-12-14T18:39:27.422Z,507.87
2017-12-14T18:41:40.571Z,491.03
2017-12-14T18:43:55.813Z,471.10
2017-12-14T18:46:11.253Z,445.87
2017-12-14T18:48:24.583Z,431.70
2017-12-14T18:53:11.001Z,387.77
2017-12-14T18:55:23.481Z,377.90
2017-12-14T18:57:34.259Z,360.40
2017-12-14T18:59:47.524Z,350.43
2017-12-14T19:02:04.154Z,339.20
2017-12-14T19:04:14.054Z,319.33
2017-12-14T19:06:26.547Z,303.60
2017-12-14T19:08:42.967Z,287.97
2017-12-14T19:10:57.506Z,272.40
2017-12-14T19:13:10.454Z,268.00
2017-12-14T19:15:18.451Z,255.43
2017-12-14T19:17:37.946Z,241.07
2017-12-14T19:19:50.543Z,231.90
2017-12-14T19:22:04.624Z,219.60
2017-12-14T19:24:21.385Z,210.73
2017-12-14T19:26:34.594Z,195.50
2017-12-14T19:32:01.101Z,173.43
2017-12-14T19:34:22.976Z,170.10
2017-12-14T19:36:39.456Z,155.77
2017-12-14T19:38:57.753Z,156.27
2017-12-14T19:41:17.401Z,145.20
2017-12-14T19:43:29.179Z,355.13
2017-12-14T19:45:48.979Z,499.90
2017-12-14T19:47:58.858Z,447.63
2017-12-14T19:50:20.230Z,391.30
2017-12-14T19:55:11.734Z,384.10
2017-12-14T19:57:27.132Z,371.60
2017-12-14T20:02:12.188Z,334.00
2017-12-14T20:04:27.236Z,318.00
2017-12-14T20:06:36.551Z,299.93
2017-12-14T20:08:51.838Z,295.53
2017-12-14T20:11:08.380Z,284.10
2017-12-14T20:13:20.562Z,265.93
2017-12-14T20:15:44.102Z,251.23
2017-12-14T20:17:56.957Z,240.50
2017-12-14T20:20:18.663Z,230.60
2017-12-14T20:22:26.572Z,215.67
2017-12-14T20:24:39.101Z,210.37
2017-12-14T20:26:45.018Z,387.17
2017-12-14T20:28:54.549Z,355.43
2017-12-14T20:31:00.342Z,716.70
2017-12-14T20:33:07.061Z,651.07
2017-12-14T20:35:19.169Z,447.07
2017-12-14T20:37:26.753Z,442.30
2017-12-14T20:39:33.752Z,482.70
2017-12-14T20:41:40.242Z,401.40
2017-12-14T20:43:46.505Z,362.70
2017-12-14T20:45:57.166Z,355.20
2017-12-14T20:48:05.215Z,403.47
2017-12-14T20:50:19.155Z,375.50
2017-12-14T20:52:28.363Z,310.50
2017-12-14T20:54:36.599Z,293.10
2017-12-14T20:56:43.514Z,402.17
2017-12-14T20:58:57.694Z,278.33
2017-12-14T21:01:09.010Z,267.73
2017-12-14T21:03:16.577Z,240.77
2017-12-14T21:05:28.065Z,233.37
2017-12-14T21:07:36.185Z,224.90
2017-12-14T21:09:49.467Z,218.73
2017-12-14T21:11:59.949Z,207.93
2017-12-14T21:14:09.674Z,201.07
2017-12-14T21:16:15.629Z,183.87
2017-12-14T21:18:23.512Z,192.40
2017-12-14T21:20:30.934Z,167.93
2017-12-14T21:22:36.898Z,438.50
2017-12-14T21:24:44.432Z,151.77
2017-12-14T21:26:51.516Z,146.00
2017-12-14T21:28:57.844Z,138.50
2017-12-14T21:31:07.199Z,131.23
2017-12-14T21:33:15.275Z,127.40
2017-12-14T21:35:21.911Z,123.27
2017-12-14T21:37:28.103Z,116.10
2017-12-14T21:39:33.608Z,114.77
2017-12-14T21:41:39.052Z,106.83
2017-12-14T21:43:45.304Z,99.33
2017-12-14T21:45:51.456Z,884.83
2017-12-14T21:47:58.983Z,607.27
2017-12-14T21:50:06.894Z,507.63
2017-12-14T21:52:13.332Z,373.47
2017-12-14T21:54:19.339Z,349.70
2017-12-14T21:56:25.492Z,360.00
2017-12-14T21:58:31.696Z,339.53
2017-12-14T22:00:38.494Z,314.07
2017-12-14T22:02:44.255Z,304.17
2017-12-14T22:04:50.627Z,282.20
2017-12-14T22:06:56.363Z,272.23
2017-12-14T22:09:04.338Z,252.53
2017-12-14T22:11:10.602Z,241.60
2017-12-14T22:13:16.307Z,232.03
2017-12-14T22:15:24.605Z,422.73
2017-12-14T22:17:32.395Z,367.00
2017-12-14T22:19:39.288Z,608.17
2017-12-14T22:21:46.540Z,219.17
2017-12-14T22:23:56.738Z,182.10
2017-12-14T22:26:03.189Z,175.33
2017-12-14T22:28:09.190Z,472.53
2017-12-14T22:30:15.448Z,238.60
2017-12-14T22:32:20.957Z,149.57
2017-12-14T22:34:28.955Z,148.93
2017-12-14T22:36:35.358Z,674.90
2017-12-14T22:38:42.684Z,134.33
2017-12-14T22:40:50.663Z,127.00
2017-12-14T22:42:56.352Z,122.90
2017-12-14T22:45:04.039Z,116.27
2017-12-14T22:47:13.516Z,108.93
2017-12-14T22:49:19.177Z,230.47
2017-12-14T22:51:26.082Z,100.70
2017-12-14T22:53:37.994Z,423.97
2017-12-14T22:55:43.764Z,815.87
2017-12-14T22:57:52.416Z,342.20
2017-12-14T23:00:04.041Z,410.70
2017-12-14T23:02:11.454Z,363.53
2017-12-14T23:04:23.532Z,368.80
2017-12-14T23:06:33.686Z,353.50
2017-12-14T23:08:40.974Z,345.47
2017-12-14T23:10:49.077Z,536.10
2017-12-14T23:12:57.200Z,365.37
2017-12-14T23:15:05.010Z,306.30
2017-12-14T23:17:12.445Z,285.93
2017-12-14T23:19:21.174Z,273.90
2017-12-14T23:21:29.080Z,246.43
2017-12-14T23:23:39.767Z,357.13
2017-12-14T23:25:48.894Z,620.83
2017-12-14T23:27:58.905Z,256.07
2017-12-14T23:30:08.148Z,228.67
2017-12-14T23:32:14.389Z,200.47
2017-12-14T23:34:22.895Z,604.67
2017-12-14T23:36:29.176Z,179.53
2017-12-14T23:38:37.460Z,176.47
2017-12-14T23:40:45.424Z,170.07
2017-12-14T23:42:52.029Z,156.90
2017-12-14T23:45:02.182Z,151.10
2017-12-14T23:47:10.421Z,138.60
2017-12-14T23:49:18.539Z,132.47
2017-12-14T23:51:31.380Z,128.03
2017-12-14T23:53:39.851Z,126.90
2017-12-14T23:55:50.093Z,828.63
2017-12-14T23:57:57.435Z,485.30
